createdAt,value
2024-02-15T00:04:15.645Z,6.67
2024-02-15T00:09:21.406Z,6.67
2024-02-15T00:14:27.127Z,6.67
2024-02-15T00:19:33.312Z,6.68
2024-02-15T00:24:40.399Z,6.69
2024-02-15T00:29:45.122Z,6.71
2024-02-15T00:34:50.863Z,6.71
2024-02-15T00:39:57.164Z,6.70
2024-02-15T00:45:03.486Z,6.69
2024-02-15T00:50:10.925Z,6.69
2024-02-15T00:55:16.651Z,6.70
2024-02-15T01:00:23.523Z,6.71
2024-02-15T01:05:29.213Z,6.71
2024-02-15T01:10:35.111Z,6.69
2024-02-15T01:15:44.576Z,6.69
2024-02-15T01:20:50.371Z,6.70
2024-02-15T01:25:56.182Z,6.71
2024-02-15T01:31:01.842Z,6.72
2024-02-15T01:36:09.696Z,6.74
2024-02-15T01:41:15.713Z,6.72
2024-02-15T01:46:23.410Z,6.69
2024-02-15T01:51:30.266Z,6.68
2024-02-15T01:56:38.006Z,6.70
2024-02-15T02:01:45.481Z,6.70
2024-02-15T02:06:51.134Z,6.71
2024-02-15T02:11:56.890Z,6.70
2024-02-15T02:17:15.710Z,6.70
2024-02-15T02:22:23.057Z,6.70
2024-02-15T02:27:31.156Z,6.70
2024-02-15T02:32:38.363Z,6.69
2024-02-15T02:37:44.913Z,6.70
2024-02-15T02:42:54.934Z,6.66
2024-02-15T02:48:00.782Z,6.62
2024-02-15T02:53:07.076Z,6.59
2024-02-15T02:58:12.733Z,6.57
2024-02-15T03:03:20.710Z,6.55
2024-02-15T03:08:26.695Z,6.55
2024-02-15T03:13:32.668Z,6.55
2024-02-15T03:18:38.338Z,6.54
2024-02-15T03:23:44.316Z,6.54
2024-02-15T03:28:52.400Z,6.53
2024-02-15T03:33:58.123Z,6.53
2024-02-15T03:39:03.836Z,6.53
2024-02-15T03:44:10.298Z,6.53
2024-02-15T03:49:16.924Z,6.53
2024-02-15T03:54:23.480Z,6.51
2024-02-15T03:59:29.133Z,6.49
2024-02-15T04:04:35.845Z,6.49
2024-02-15T04:09:41.522Z,6.50
2024-02-15T04:14:48.020Z,6.52
2024-02-15T04:19:55.472Z,6.52
2024-02-15T04:25:01.155Z,6.49
2024-02-15T04:30:10.771Z,6.48
2024-02-15T04:35:16.812Z,6.46
2024-02-15T04:40:22.578Z,6.45
2024-02-15T04:45:28.289Z,6.43
2024-02-15T04:50:34.052Z,6.39
2024-02-15T04:55:40.533Z,6.35
2024-02-15T05:00:46.182Z,6.35
2024-02-15T05:05:51.872Z,6.34
2024-02-15T05:10:58.717Z,6.34
2024-02-15T05:16:04.461Z,6.32
2024-02-15T05:21:10.859Z,6.30
2024-02-15T05:26:17.561Z,6.29
2024-02-15T05:31:26.762Z,6.29
2024-02-15T05:36:32.455Z,6.27
2024-02-15T05:41:38.330Z,6.23
2024-02-15T05:46:44.185Z,6.18
2024-02-15T05:51:50.158Z,6.14
2024-02-15T05:56:56.855Z,6.10
2024-02-15T06:02:04.278Z,6.05
2024-02-15T06:07:11.141Z,5.95
2024-02-15T06:12:16.826Z,5.88
2024-02-15T06:17:22.431Z,5.82
2024-02-15T06:22:28.309Z,5.75
2024-02-15T06:27:34.457Z,5.69
2024-02-15T06:32:57.731Z,5.64
2024-02-15T06:38:21.117Z,5.63
2024-02-15T06:43:27.029Z,5.65
2024-02-15T06:48:32.909Z,5.67
2024-02-15T06:53:39.434Z,5.74
2024-02-15T06:58:45.334Z,5.86
2024-02-15T07:03:51.778Z,6.04
2024-02-15T07:08:58.571Z,6.22
2024-02-15T07:14:06.165Z,6.33
2024-02-15T07:19:12.190Z,6.50
2024-02-15T07:24:18.187Z,6.85
2024-02-15T07:29:24.833Z,7.19
2024-02-15T07:34:30.590Z,7.42
2024-02-15T07:39:37.922Z,7.62
2024-02-15T07:44:44.300Z,7.83
2024-02-15T07:49:51.021Z,8.04
2024-02-15T07:54:57.502Z,8.33
2024-02-15T08:00:06.794Z,8.74
2024-02-15T08:05:15.883Z,9.29
2024-02-15T08:10:23.332Z,9.86
2024-02-15T08:15:29.962Z,10.33
2024-02-15T08:20:36.122Z,10.55
2024-02-15T08:25:43.828Z,10.71
2024-02-15T08:30:49.831Z,10.74
2024-02-15T08:35:56.466Z,10.69
2024-02-15T08:41:02.810Z,10.70
2024-02-15T08:46:08.871Z,10.77
2024-02-15T08:51:14.648Z,10.84
2024-02-15T08:56:20.469Z,10.92
2024-02-15T09:01:26.851Z,10.91
2024-02-15T09:06:32.834Z,10.91
2024-02-15T09:11:38.528Z,10.91
2024-02-15T09:16:44.176Z,10.96
2024-02-15T09:21:49.801Z,11.11
2024-02-15T09:26:55.454Z,11.19
2024-02-15T09:32:03.756Z,11.20
2024-02-15T09:37:09.374Z,11.23
2024-02-15T09:42:15.763Z,11.33
2024-02-15T09:47:22.675Z,11.48
2024-02-15T09:52:35.527Z,11.56
2024-02-15T09:57:41.258Z,11.62
2024-02-15T10:02:50.000Z,11.66
2024-02-15T10:07:55.600Z,11.79
2024-02-15T10:13:02.635Z,11.78
2024-02-15T10:18:11.970Z,11.69
2024-02-15T10:23:19.472Z,11.65
2024-02-15T10:28:25.618Z,11.76
2024-02-15T10:33:32.174Z,11.92
2024-02-15T10:38:38.310Z,12.12
2024-02-15T10:43:48.458Z,12.14
2024-02-15T10:48:54.401Z,12.03
2024-02-15T10:54:08.714Z,12.01
2024-02-15T10:59:24.008Z,12.14
2024-02-15T11:04:34.071Z,12.21
2024-02-15T11:09:41.059Z,12.19
2024-02-15T11:14:48.900Z,12.14
2024-02-15T11:19:54.718Z,12.11
2024-02-15T11:24:59.438Z,12.10
2024-02-15T11:30:11.548Z,12.04
2024-02-15T11:35:19.424Z,11.99
2024-02-15T11:40:28.720Z,11.97
2024-02-15T11:45:39.025Z,11.96
2024-02-15T11:50:44.815Z,11.95
2024-02-15T11:55:50.468Z,11.98
2024-02-15T12:01:20.782Z,12.00
2024-02-15T12:06:43.853Z,12.01
2024-02-15T12:12:07.160Z,12.03
2024-02-15T12:17:32.448Z,12.10
2024-02-15T12:22:42.932Z,12.14
2024-02-15T12:27:49.031Z,12.18
2024-02-15T12:33:12.796Z,12.23
2024-02-15T12:38:19.482Z,12.22
2024-02-15T12:43:25.248Z,12.18
2024-02-15T12:48:31.695Z,12.15
2024-02-15T12:53:38.910Z,12.14
2024-02-15T12:58:46.134Z,12.13
2024-02-15T13:03:52.835Z,12.13
2024-02-15T13:08:58.489Z,12.13
2024-02-15T13:14:06.090Z,12.12
2024-02-15T13:19:11.917Z,12.12
2024-02-15T13:24:16.295Z,12.10
2024-02-15T13:29:23.424Z,12.08
2024-02-15T13:34:29.209Z,12.07
2024-02-15T13:39:36.173Z,12.09
2024-02-15T13:44:42.312Z,12.25
2024-02-15T13:49:48.341Z,12.37
2024-02-15T13:54:54.472Z,12.34
2024-02-15T14:00:00.225Z,12.30
2024-02-15T14:05:09.349Z,12.24
2024-02-15T14:10:15.407Z,12.21
2024-02-15T14:15:21.222Z,12.15
2024-02-15T14:20:28.265Z,12.10
2024-02-15T14:25:34.886Z,12.03
2024-02-15T14:31:01.466Z,11.96
2024-02-15T14:36:07.739Z,11.91
2024-02-15T14:46:19.860Z,11.77
2024-02-15T14:51:25.654Z,11.72
2024-02-15T14:56:29.956Z,11.67
2024-02-15T15:01:36.849Z,11.63
2024-02-15T15:07:03.831Z,11.58
2024-02-15T15:12:27.352Z,11.53
2024-02-15T15:17:33.130Z,11.46
2024-02-15T15:22:39.053Z,11.37
2024-02-15T15:27:44.620Z,11.30
2024-02-15T15:32:51.108Z,11.21
2024-02-15T15:37:56.791Z,11.22
2024-02-15T15:43:04.191Z,11.32
2024-02-15T15:48:10.834Z,11.43
2024-02-15T15:53:16.690Z,11.50
2024-02-15T15:58:25.527Z,11.51
2024-02-15T16:03:33.058Z,11.52
2024-02-15T16:08:39.657Z,11.61
2024-02-15T16:13:47.961Z,11.56
2024-02-15T16:18:53.681Z,11.49
2024-02-15T16:23:58.694Z,11.33
2024-02-15T16:29:04.717Z,11.14
2024-02-15T16:34:10.407Z,10.96
2024-02-15T16:39:16.216Z,10.79
2024-02-15T16:44:22.011Z,10.64
2024-02-15T16:49:28.219Z,10.51
2024-02-15T16:54:33.886Z,10.38
2024-02-15T16:59:39.674Z,10.26
2024-02-15T17:04:45.389Z,10.15
2024-02-15T17:09:51.008Z,10.03
2024-02-15T17:14:56.816Z,9.90
2024-02-15T17:20:02.469Z,9.78
2024-02-15T17:25:08.526Z,9.67
2024-02-15T17:30:15.187Z,9.60
2024-02-15T17:35:22.442Z,9.52
2024-02-15T17:40:28.859Z,9.44
2024-02-15T17:45:34.805Z,9.38
2024-02-15T17:50:39.342Z,9.30
2024-02-15T17:55:46.186Z,9.22
2024-02-15T18:00:53.788Z,9.11
2024-02-15T18:05:59.565Z,9.01
2024-02-15T18:11:06.348Z,8.93
2024-02-15T18:16:13.081Z,8.88
2024-02-15T18:21:18.912Z,8.82
2024-02-15T18:26:24.552Z,8.78
2024-02-15T18:31:31.246Z,8.75
2024-02-15T18:36:38.533Z,8.71
2024-02-15T18:41:49.321Z,8.66
2024-02-15T18:46:56.465Z,8.58
2024-02-15T18:52:02.272Z,8.53
2024-02-15T19:02:58.406Z,8.45
2024-02-15T19:08:04.085Z,8.41
2024-02-15T19:13:09.857Z,8.35
2024-02-15T19:18:15.590Z,8.24
2024-02-15T19:23:21.212Z,8.12
2024-02-15T19:28:28.381Z,8.02
2024-02-15T19:33:44.226Z,7.95
2024-02-15T19:38:58.255Z,7.88
2024-02-15T19:44:04.909Z,7.79
2024-02-15T19:49:11.641Z,7.72
2024-02-15T19:54:18.945Z,7.64
2024-02-15T19:59:24.537Z,7.57
2024-02-15T20:04:30.398Z,7.51
2024-02-15T20:09:44.316Z,7.47
2024-02-15T20:14:53.329Z,7.42
2024-02-15T20:19:59.063Z,7.37
2024-02-15T20:25:06.159Z,7.30
2024-02-15T20:30:14.759Z,7.28
2024-02-15T20:35:20.637Z,7.29
2024-02-15T20:40:26.413Z,7.28
2024-02-15T20:45:32.144Z,7.26
2024-02-15T20:50:37.752Z,7.28
2024-02-15T20:55:43.395Z,7.28
2024-02-15T21:00:49.111Z,7.28
2024-02-15T21:05:54.931Z,7.25
2024-02-15T21:11:02.721Z,7.20
2024-02-15T21:16:09.597Z,7.16
2024-02-15T21:21:15.335Z,7.12
2024-02-15T21:26:22.920Z,7.08
2024-02-15T21:31:28.565Z,7.06
2024-02-15T21:36:34.234Z,7.05
2024-02-15T21:41:39.942Z,7.04
2024-02-15T21:46:45.509Z,7.01
2024-02-15T21:51:52.223Z,7.00
2024-02-15T21:56:58.076Z,6.98
2024-02-15T22:02:08.534Z,6.96
2024-02-15T22:07:20.002Z,6.95
2024-02-15T22:12:25.765Z,6.95
2024-02-15T22:17:31.511Z,6.96
2024-02-15T22:22:37.280Z,6.97
2024-02-15T22:27:45.461Z,7.00
2024-02-15T22:32:51.456Z,7.04
2024-02-15T22:37:57.363Z,7.07
2024-02-15T22:43:03.310Z,7.08
2024-02-15T22:48:10.054Z,7.10
2024-02-15T22:53:18.611Z,7.12
2024-02-15T22:58:29.954Z,7.15
2024-02-15T23:03:36.226Z,7.18
2024-02-15T23:08:40.529Z,7.21
2024-02-15T23:13:46.607Z,7.23
2024-02-15T23:18:52.622Z,7.27
2024-02-15T23:23:59.135Z,7.30
2024-02-15T23:29:04.878Z,7.33
2024-02-15T23:34:11.307Z,7.35
2024-02-15T23:39:34.687Z,7.38
2024-02-15T23:44:40.569Z,7.41
2024-02-15T23:49:46.612Z,7.43
2024-02-15T23:54:53.125Z,7.45
2024-02-15T23:59:58.788Z,7.47
